createdAt,value
2018-12-12T00:00:47.457Z,8.27
2018-12-12T00:03:15.615Z,8.87
2018-12-12T00:05:43.780Z,8.63
2018-12-12T00:08:11.901Z,9.27
2018-12-12T00:10:40.215Z,9.33
2018-12-12T00:13:08.575Z,8.53
2018-12-12T00:15:36.793Z,8.47
2018-12-12T00:18:05.305Z,8.70
2018-12-12T00:20:33.418Z,8.80
2018-12-12T00:23:01.574Z,8.77
2018-12-12T00:26:33.482Z,8.63
2018-12-12T00:29:01.635Z,9.50
2018-12-12T00:31:29.785Z,9.07
2018-12-12T00:33:57.876Z,9.10
2018-12-12T00:36:26.099Z,8.30
2018-12-12T00:38:54.201Z,8.93
2018-12-12T00:41:22.320Z,9.40
2018-12-12T00:43:50.446Z,9.70
2018-12-12T00:46:18.670Z,8.03
2018-12-12T00:48:47.049Z,8.30
2018-12-12T00:51:15.221Z,9.03
2018-12-12T00:53:43.356Z,9.37
2018-12-12T00:56:11.600Z,8.83
2018-12-12T00:58:39.841Z,8.23
2018-12-12T01:01:08.001Z,8.70
2018-12-12T01:03:36.172Z,8.10
2018-12-12T01:06:04.346Z,8.43
2018-12-12T01:08:32.537Z,9.47
2018-12-12T01:11:06.104Z,8.80
2018-12-12T01:13:34.304Z,8.50
2018-12-12T01:16:02.491Z,8.30
2018-12-12T01:18:30.621Z,9.30
2018-12-12T01:20:58.821Z,9.20
2018-12-12T01:23:27.003Z,9.93
2018-12-12T01:25:55.178Z,9.13
2018-12-12T01:28:23.354Z,10.20
2018-12-12T01:30:51.494Z,9.70
2018-12-12T01:33:19.702Z,9.77
2018-12-12T01:35:47.901Z,9.50
2018-12-12T01:38:16.046Z,8.97
2018-12-12T01:40:44.204Z,9.40
2018-12-12T01:43:12.368Z,7.90
2018-12-12T01:45:40.484Z,8.10
2018-12-12T01:48:08.581Z,8.77
2018-12-12T01:50:37.040Z,8.53
2018-12-12T01:53:05.165Z,8.80
2018-12-12T01:55:33.845Z,8.53
2018-12-12T01:58:01.978Z,8.00
2018-12-12T02:00:30.088Z,8.13
2018-12-12T02:02:58.293Z,7.20
2018-12-12T02:05:26.428Z,7.53
2018-12-12T02:07:54.765Z,8.07
2018-12-12T02:10:23.208Z,7.40
2018-12-12T02:12:56.969Z,7.63
2018-12-12T02:15:25.107Z,7.50
2018-12-12T02:17:53.238Z,7.20
2018-12-12T02:20:21.345Z,7.03
2018-12-12T02:22:49.600Z,7.70
2018-12-12T02:25:17.693Z,7.20
2018-12-12T02:27:45.905Z,7.63
2018-12-12T02:30:14.068Z,7.40
2018-12-12T02:32:42.316Z,7.07
2018-12-12T02:35:10.469Z,7.27
2018-12-12T02:37:38.572Z,7.13
2018-12-12T02:40:06.696Z,7.60
2018-12-12T02:42:34.876Z,8.10
2018-12-12T02:45:02.979Z,7.43
2018-12-12T02:47:31.076Z,7.67
2018-12-12T02:49:59.253Z,6.70
2018-12-12T02:52:27.424Z,6.63
2018-12-12T02:54:55.533Z,6.83
2018-12-12T02:57:23.737Z,6.20
2018-12-12T02:59:51.932Z,6.63
2018-12-12T03:02:20.057Z,7.50
2018-12-12T03:04:48.243Z,6.67
2018-12-12T03:07:16.449Z,6.60
2018-12-12T03:09:44.582Z,6.47
2018-12-12T03:12:12.696Z,6.53
2018-12-12T03:14:40.790Z,6.93
2018-12-12T03:17:08.921Z,6.73
2018-12-12T03:19:37.149Z,6.53
2018-12-12T03:22:05.297Z,6.77
2018-12-12T03:24:33.401Z,6.40
2018-12-12T03:27:01.531Z,6.90
2018-12-12T03:29:29.766Z,6.10
2018-12-12T03:31:57.874Z,6.57
2018-12-12T03:34:26.642Z,5.80
2018-12-12T03:36:54.837Z,6.60
2018-12-12T03:39:23.076Z,6.77
2018-12-12T03:41:51.439Z,7.00
2018-12-12T03:44:19.666Z,6.70
2018-12-12T03:46:47.922Z,6.63
2018-12-12T03:49:16.088Z,6.20
2018-12-12T03:51:44.279Z,6.83
2018-12-12T03:54:12.556Z,6.60
2018-12-12T03:56:40.757Z,6.97
2018-12-12T03:59:08.868Z,6.80
2018-12-12T04:01:36.965Z,6.60
2018-12-12T04:04:05.177Z,6.47
2018-12-12T04:06:33.333Z,6.80
2018-12-12T04:09:01.501Z,7.20
2018-12-12T04:11:29.767Z,6.93
2018-12-12T04:13:57.853Z,6.87
2018-12-12T04:16:26.371Z,6.77
2018-12-12T04:18:54.628Z,6.77
2018-12-12T04:21:22.790Z,6.97
2018-12-12T04:23:50.938Z,7.57
2018-12-12T04:26:19.149Z,7.47
2018-12-12T04:28:47.304Z,7.20
2018-12-12T04:31:15.464Z,7.07
2018-12-12T04:33:43.657Z,6.93
2018-12-12T04:36:11.790Z,7.07
2018-12-12T04:38:39.943Z,7.60
2018-12-12T04:41:08.089Z,7.17
2018-12-12T04:43:36.261Z,7.87
2018-12-12T04:46:04.377Z,7.73
2018-12-12T04:48:32.508Z,8.07
2018-12-12T04:51:00.657Z,7.67
2018-12-12T04:53:28.853Z,7.67
2018-12-12T04:55:57.148Z,7.87
2018-12-12T04:58:25.309Z,8.27
2018-12-12T05:00:53.404Z,8.37
2018-12-12T05:03:21.514Z,8.40
2018-12-12T05:05:49.714Z,8.40
2018-12-12T05:08:17.889Z,8.60
2018-12-12T05:10:46.018Z,7.77
2018-12-12T05:13:14.122Z,8.33
2018-12-12T05:15:42.273Z,7.60
2018-12-12T05:18:10.425Z,8.83
2018-12-12T05:20:38.538Z,8.50
2018-12-12T05:23:06.670Z,9.10
2018-12-12T05:25:34.819Z,8.53
2018-12-12T05:28:02.964Z,8.83
2018-12-12T05:30:31.344Z,8.73
2018-12-12T05:32:59.552Z,8.87
2018-12-12T05:35:27.725Z,8.80
2018-12-12T05:37:55.933Z,9.37
2018-12-12T05:40:24.327Z,9.57
2018-12-12T05:42:52.563Z,8.83
2018-12-12T05:45:21.389Z,9.40
2018-12-12T05:47:49.505Z,8.33
2018-12-12T05:50:17.676Z,8.67
2018-12-12T05:52:45.801Z,8.83
2018-12-12T05:55:13.921Z,8.60
2018-12-12T05:57:42.112Z,8.83
2018-12-12T06:00:12.189Z,9.27
2018-12-12T06:02:40.372Z,9.27
2018-12-12T06:05:08.486Z,8.57
2018-12-12T06:07:36.749Z,8.93
2018-12-12T06:10:05.273Z,9.20
2018-12-12T06:12:33.379Z,8.40
2018-12-12T06:15:01.572Z,8.67
2018-12-12T06:17:29.695Z,8.40
2018-12-12T06:19:58.063Z,8.00
2018-12-12T06:22:26.506Z,10.07
2018-12-12T06:24:54.626Z,8.90
2018-12-12T06:27:22.740Z,9.90
2018-12-12T06:29:50.937Z,8.83
2018-12-12T06:34:49.145Z,10.87
2018-12-12T06:37:17.305Z,9.50
2018-12-12T06:39:45.438Z,9.53
2018-12-12T06:42:13.565Z,9.77
2018-12-12T06:44:41.742Z,10.10
2018-12-12T06:47:09.904Z,10.83
2018-12-12T06:49:38.185Z,10.50
2018-12-12T06:52:06.278Z,10.47
2018-12-12T06:54:34.701Z,11.40
2018-12-12T06:57:02.831Z,11.03
2018-12-12T06:59:31.054Z,11.47
2018-12-12T07:01:59.277Z,10.50
2018-12-12T07:04:27.547Z,11.30
2018-12-12T07:06:56.625Z,10.43
2018-12-12T07:09:24.779Z,11.43
2018-12-12T07:11:53.224Z,11.20
2018-12-12T07:14:21.342Z,10.73
2018-12-12T07:16:49.484Z,10.17
2018-12-12T07:19:17.731Z,10.77
2018-12-12T07:21:45.853Z,11.97
2018-12-12T07:24:14.108Z,10.40
2018-12-12T07:26:42.284Z,10.37
2018-12-12T07:29:10.488Z,9.57
2018-12-12T07:31:38.684Z,9.97
2018-12-12T07:34:07.421Z,11.13
2018-12-12T07:36:36.348Z,11.00
2018-12-12T07:39:08.761Z,11.07
2018-12-12T07:41:37.404Z,10.77
2018-12-12T07:44:05.900Z,11.00
2018-12-12T07:46:34.133Z,11.33
2018-12-12T07:49:02.604Z,11.77
2018-12-12T07:51:30.768Z,12.13
2018-12-12T07:53:58.937Z,12.13
2018-12-12T07:56:27.056Z,12.17
2018-12-12T07:58:55.297Z,11.87
2018-12-12T08:01:23.439Z,12.00
2018-12-12T08:03:51.894Z,11.90
2018-12-12T08:06:20.044Z,12.40
2018-12-12T08:08:48.252Z,13.43
2018-12-12T08:11:16.460Z,14.27
2018-12-12T08:13:44.665Z,15.23
2018-12-12T08:16:12.898Z,15.23
2018-12-12T08:18:41.823Z,17.30
2018-12-12T08:21:09.985Z,16.27
2018-12-12T08:23:38.125Z,17.23
2018-12-12T08:26:06.240Z,18.63
2018-12-12T08:28:34.449Z,18.13
2018-12-12T08:31:02.597Z,17.97
2018-12-12T08:33:30.765Z,18.87
2018-12-12T08:35:58.880Z,19.53
2018-12-12T08:38:27.647Z,18.77
2018-12-12T08:40:55.755Z,17.10
2018-12-12T08:43:23.906Z,19.43
2018-12-12T08:45:52.072Z,19.50
2018-12-12T08:48:20.268Z,19.33
2018-12-12T08:50:48.423Z,18.20
2018-12-12T08:53:16.520Z,17.97
2018-12-12T08:55:44.697Z,16.43
2018-12-12T08:58:12.817Z,17.17
2018-12-12T09:00:40.992Z,17.10
2018-12-12T09:03:09.120Z,16.33
2018-12-12T09:05:37.496Z,17.93
2018-12-12T09:08:05.618Z,17.70
2018-12-12T09:10:33.824Z,18.40
2018-12-12T09:13:01.976Z,18.43
2018-12-12T09:15:30.194Z,18.20
2018-12-12T09:17:58.770Z,19.83
2018-12-12T09:20:26.927Z,18.77
2018-12-12T09:22:55.089Z,18.17
2018-12-12T09:25:23.261Z,19.13
2018-12-12T09:27:51.481Z,18.70
2018-12-12T09:30:19.702Z,18.00
2018-12-12T09:32:47.923Z,18.73
2018-12-12T09:35:16.110Z,18.33
2018-12-12T09:37:44.645Z,20.20
2018-12-12T09:40:12.809Z,19.97
2018-12-12T09:42:40.937Z,20.57
2018-12-12T09:45:09.098Z,19.13
2018-12-12T09:47:37.387Z,18.80
2018-12-12T09:50:05.578Z,20.23
2018-12-12T09:52:33.709Z,19.27
2018-12-12T09:55:01.809Z,20.73
2018-12-12T09:57:29.966Z,20.97
2018-12-12T09:59:58.093Z,19.03
2018-12-12T10:02:26.271Z,19.93
2018-12-12T10:04:54.390Z,19.50
2018-12-12T10:07:22.560Z,19.00
2018-12-12T10:09:50.689Z,19.97
2018-12-12T10:12:18.922Z,20.87
2018-12-12T10:14:47.061Z,19.00
2018-12-12T10:17:15.336Z,18.93
2018-12-12T10:19:44.104Z,18.93
2018-12-12T10:22:12.397Z,18.37
2018-12-12T10:24:40.665Z,18.77
2018-12-12T10:27:08.890Z,18.43
2018-12-12T10:29:38.356Z,19.30
2018-12-12T10:32:06.686Z,18.80
2018-12-12T10:34:34.792Z,17.23
2018-12-12T10:37:02.994Z,17.57
2018-12-12T10:39:31.154Z,18.37
2018-12-12T10:41:59.471Z,19.40
2018-12-12T10:44:27.579Z,19.23
2018-12-12T10:46:55.796Z,18.87
2018-12-12T10:49:23.965Z,19.37
2018-12-12T10:51:52.128Z,19.40
2018-12-12T10:54:20.236Z,19.50
2018-12-12T10:56:48.416Z,19.27
2018-12-12T10:59:16.632Z,18.60
2018-12-12T11:01:47.256Z,18.17
2018-12-12T11:04:16.462Z,18.80
2018-12-12T11:06:44.638Z,16.93
2018-12-12T11:09:12.937Z,17.33
2018-12-12T11:11:41.118Z,17.53
2018-12-12T11:14:09.262Z,17.80
2018-12-12T11:16:37.398Z,19.13
2018-12-12T11:19:05.535Z,18.47
2018-12-12T11:21:33.722Z,18.30
2018-12-12T11:24:01.882Z,18.37
2018-12-12T11:26:30.020Z,18.80
2018-12-12T11:28:58.185Z,18.90
2018-12-12T11:31:26.348Z,17.17
2018-12-12T11:33:54.502Z,16.53
2018-12-12T11:36:22.665Z,16.90
2018-12-12T11:38:50.867Z,15.93
2018-12-12T11:41:19.038Z,17.03
2018-12-12T11:43:47.166Z,15.70
2018-12-12T11:46:15.383Z,16.77
2018-12-12T11:48:43.568Z,15.87
2018-12-12T11:51:11.731Z,15.80
2018-12-12T11:53:39.925Z,15.77
2018-12-12T11:56:08.061Z,15.73
2018-12-12T11:58:36.309Z,15.10
2018-12-12T12:01:04.425Z,15.97
2018-12-12T12:03:32.572Z,15.93
2018-12-12T12:06:00.764Z,16.47
2018-12-12T12:08:28.918Z,17.20
2018-12-12T12:10:57.031Z,15.03
2018-12-12T12:13:25.143Z,16.83
2018-12-12T12:15:53.244Z,14.43
2018-12-12T12:18:21.473Z,13.40
2018-12-12T12:20:49.577Z,13.47
2018-12-12T12:23:17.792Z,13.53
2018-12-12T12:25:46.052Z,12.63
2018-12-12T12:28:14.233Z,13.17
2018-12-12T12:30:42.389Z,13.50
2018-12-12T12:33:10.582Z,12.73
2018-12-12T12:35:38.725Z,12.83
2018-12-12T12:38:06.841Z,12.33
2018-12-12T12:40:35.001Z,13.00
2018-12-12T12:43:03.320Z,13.23
2018-12-12T12:45:32.002Z,13.13
2018-12-12T12:48:00.247Z,13.20
2018-12-12T12:50:28.400Z,13.33
2018-12-12T12:52:56.527Z,12.27
2018-12-12T12:55:24.678Z,12.57
2018-12-12T12:57:52.824Z,12.73
2018-12-12T13:00:21.033Z,12.50
2018-12-12T13:02:49.733Z,12.03
2018-12-12T13:05:17.881Z,11.47
2018-12-12T13:07:46.070Z,10.70
2018-12-12T13:10:14.522Z,10.60
2018-12-12T13:12:43.401Z,11.00
2018-12-12T13:15:12.299Z,10.83
2018-12-12T13:17:40.480Z,10.00
2018-12-12T13:20:08.755Z,9.90
2018-12-12T13:22:36.869Z,9.63
2018-12-12T13:25:05.008Z,9.90
2018-12-12T13:27:33.208Z,10.07
2018-12-12T13:30:01.473Z,9.67
2018-12-12T13:32:29.565Z,10.43
2018-12-12T13:34:57.709Z,10.27
2018-12-12T13:37:25.933Z,11.27
2018-12-12T13:39:54.060Z,12.00
2018-12-12T13:42:22.280Z,11.97
2018-12-12T13:44:50.415Z,11.90
2018-12-12T13:47:19.130Z,12.50
2018-12-12T13:49:47.293Z,11.63
2018-12-12T13:52:15.434Z,12.43
2018-12-12T13:54:43.627Z,12.90
2018-12-12T13:57:11.781Z,11.93
2018-12-12T13:59:40.001Z,11.50
2018-12-12T14:02:08.166Z,11.13
2018-12-12T14:04:36.345Z,11.50
2018-12-12T14:07:04.480Z,11.80
2018-12-12T14:09:32.608Z,11.43
2018-12-12T14:12:00.785Z,12.17
2018-12-12T14:14:29.032Z,11.60
2018-12-12T14:16:57.321Z,11.60
2018-12-12T14:19:25.477Z,11.67
2018-12-12T14:21:53.726Z,11.33
2018-12-12T14:24:21.968Z,12.33
2018-12-12T14:26:50.429Z,12.70
2018-12-12T14:29:18.593Z,12.73
2018-12-12T14:31:46.736Z,13.47
2018-12-12T14:34:14.901Z,12.83
2018-12-12T14:36:43.160Z,13.30
2018-12-12T14:39:11.285Z,11.87
2018-12-12T14:41:39.905Z,12.40
2018-12-12T14:44:08.013Z,13.50
2018-12-12T14:46:36.297Z,12.70
2018-12-12T14:49:05.126Z,12.83
2018-12-12T14:51:33.323Z,12.73
2018-12-12T14:54:01.481Z,12.53
2018-12-12T14:56:29.619Z,12.60
2018-12-12T14:58:57.784Z,12.57
2018-12-12T15:01:25.957Z,13.50
2018-12-12T15:03:54.239Z,13.83
2018-12-12T15:06:22.384Z,14.20
2018-12-12T15:08:50.612Z,13.43
2018-12-12T15:11:18.889Z,13.60
2018-12-12T15:13:47.133Z,13.17
2018-12-12T15:16:15.433Z,14.00
2018-12-12T15:18:43.618Z,14.23
2018-12-12T15:21:11.814Z,13.83
2018-12-12T15:23:39.936Z,13.97
2018-12-12T15:26:08.577Z,14.90
2018-12-12T15:28:36.765Z,14.77
2018-12-12T15:31:05.002Z,15.20
2018-12-12T15:33:33.207Z,14.17
2018-12-12T15:36:01.318Z,14.77
2018-12-12T15:38:29.498Z,15.17
2018-12-12T15:40:57.704Z,14.90
2018-12-12T15:43:26.637Z,13.17
2018-12-12T15:45:54.883Z,14.33
2018-12-12T15:48:23.801Z,12.47
2018-12-12T15:50:51.951Z,13.23
2018-12-12T15:53:20.106Z,11.23
2018-12-12T15:55:48.296Z,11.87
2018-12-12T15:58:16.409Z,10.37
2018-12-12T16:00:44.562Z,10.40
2018-12-12T16:03:13.002Z,9.93
2018-12-12T16:05:41.173Z,9.37
2018-12-12T16:08:09.312Z,10.13
2018-12-12T16:10:37.440Z,10.13
2018-12-12T16:13:05.622Z,10.10
2018-12-12T16:15:33.824Z,9.90
2018-12-12T16:18:02.028Z,9.20
2018-12-12T16:20:30.262Z,9.20
2018-12-12T16:22:58.480Z,8.90
2018-12-12T16:25:26.677Z,8.83
2018-12-12T16:27:54.838Z,8.87
2018-12-12T16:30:23.042Z,9.00
2018-12-12T16:32:51.153Z,8.80
2018-12-12T16:35:19.248Z,8.07
2018-12-12T16:37:47.418Z,9.17
2018-12-12T16:40:15.564Z,9.57
2018-12-12T16:42:43.698Z,8.80
2018-12-12T16:45:11.859Z,8.10
2018-12-12T16:47:39.968Z,7.50
2018-12-12T16:50:08.084Z,8.10
2018-12-12T16:52:36.372Z,8.63
2018-12-12T16:55:04.505Z,8.80
2018-12-12T16:57:32.743Z,8.23
2018-12-12T17:00:00.869Z,8.63
2018-12-12T17:02:29.145Z,9.50
2018-12-12T17:05:02.317Z,9.67
2018-12-12T17:07:28.380Z,9.87
2018-12-12T17:09:56.494Z,11.13
2018-12-12T17:12:24.618Z,11.20
2018-12-12T17:14:52.781Z,10.90
2018-12-12T17:17:20.965Z,10.50
2018-12-12T17:19:49.109Z,12.43
2018-12-12T17:22:17.645Z,11.63
2018-12-12T17:24:45.767Z,12.40
2018-12-12T17:27:13.914Z,13.40
2018-12-12T17:29:42.114Z,13.03
2018-12-12T17:32:10.241Z,12.47
2018-12-12T17:34:38.374Z,11.43
2018-12-12T17:37:06.579Z,12.30
2018-12-12T17:39:34.809Z,12.77
2018-12-12T17:42:02.989Z,12.00
2018-12-12T17:44:31.141Z,13.23
2018-12-12T17:46:59.281Z,13.50
2018-12-12T17:49:27.422Z,13.53
2018-12-12T17:51:55.602Z,13.03
2018-12-12T17:54:24.029Z,13.50
2018-12-12T17:56:52.174Z,14.60
2018-12-12T17:59:20.324Z,13.33
2018-12-12T18:01:48.760Z,14.43
2018-12-12T18:04:16.969Z,14.07
2018-12-12T18:06:45.137Z,14.03
2018-12-12T18:09:13.343Z,15.00
2018-12-12T18:11:41.521Z,14.20
2018-12-12T18:14:09.701Z,15.50
2018-12-12T18:16:38.020Z,15.37
2018-12-12T18:19:06.182Z,14.77
2018-12-12T18:21:34.372Z,15.07
2018-12-12T18:24:02.598Z,13.90
2018-12-12T18:26:30.796Z,14.60
2018-12-12T18:28:58.972Z,14.63
2018-12-12T18:31:27.117Z,13.77
2018-12-12T18:33:55.245Z,14.43
2018-12-12T18:36:23.497Z,13.53
2018-12-12T18:38:51.695Z,15.00
2018-12-12T18:41:19.839Z,14.03
2018-12-12T18:43:48.024Z,14.63
2018-12-12T18:46:16.182Z,14.77
2018-12-12T18:48:44.293Z,15.23
2018-12-12T18:51:13.025Z,14.97
2018-12-12T18:53:41.830Z,15.40
2018-12-12T18:56:09.993Z,15.53
2018-12-12T18:58:38.268Z,15.23
2018-12-12T19:01:06.406Z,17.10
2018-12-12T19:03:34.527Z,17.47
2018-12-12T19:06:02.765Z,16.10
2018-12-12T19:08:30.916Z,17.27
2018-12-12T19:10:59.129Z,14.90
2018-12-12T19:13:27.301Z,15.60
2018-12-12T19:15:55.549Z,15.17
2018-12-12T19:18:23.796Z,14.87
2018-12-12T19:20:51.948Z,15.50
2018-12-12T19:23:20.211Z,15.20
2018-12-12T19:25:48.389Z,14.30
2018-12-12T19:28:16.589Z,15.37
2018-12-12T19:30:44.833Z,13.93
2018-12-12T19:33:12.957Z,13.27
2018-12-12T19:35:41.185Z,14.63
2018-12-12T19:38:09.401Z,14.70
2018-12-12T19:40:37.544Z,13.23
2018-12-12T19:43:05.698Z,13.23
2018-12-12T19:45:33.824Z,13.93
2018-12-12T19:48:02.097Z,13.27
2018-12-12T19:50:30.286Z,13.50
2018-12-12T19:52:58.481Z,13.57
2018-12-12T19:55:26.663Z,13.20
2018-12-12T19:57:54.824Z,13.67
2018-12-12T20:00:23.129Z,12.87
2018-12-12T20:02:51.309Z,12.23
2018-12-12T20:05:19.579Z,12.80
2018-12-12T20:07:47.697Z,12.90
2018-12-12T20:10:15.853Z,12.90
2018-12-12T20:12:44.026Z,12.83
2018-12-12T20:15:16.429Z,13.30
2018-12-12T20:17:44.566Z,12.77
2018-12-12T20:20:12.853Z,13.53
2018-12-12T20:22:41.025Z,13.97
2018-12-12T20:25:09.206Z,13.77
2018-12-12T20:27:37.327Z,13.83
2018-12-12T20:30:05.524Z,13.37
2018-12-12T20:32:33.775Z,13.77
2018-12-12T20:35:01.981Z,14.07
2018-12-12T20:37:30.176Z,13.77
2018-12-12T20:39:58.353Z,13.13
2018-12-12T20:42:26.474Z,14.13
2018-12-12T20:44:54.709Z,13.67
2018-12-12T20:47:22.847Z,12.97
2018-12-12T20:49:51.009Z,13.33
2018-12-12T20:52:19.247Z,14.07
2018-12-12T20:54:47.364Z,13.10
2018-12-12T20:57:16.240Z,15.30
2018-12-12T20:59:45.898Z,13.13
2018-12-12T21:02:14.397Z,15.23
2018-12-12T21:04:42.575Z,13.93
2018-12-12T21:07:10.703Z,14.87
2018-12-12T21:09:38.889Z,14.47
2018-12-12T21:12:07.057Z,14.50
2018-12-12T21:14:35.237Z,14.57
2018-12-12T21:17:03.397Z,15.27
2018-12-12T21:19:31.619Z,15.63
2018-12-12T21:21:59.880Z,14.40
2018-12-12T21:24:28.283Z,15.47
2018-12-12T21:26:56.569Z,15.47
2018-12-12T21:29:24.698Z,16.10
2018-12-12T21:31:52.848Z,16.43
2018-12-12T21:34:20.961Z,16.20
2018-12-12T21:36:49.106Z,16.77
2018-12-12T21:39:17.277Z,16.17
2018-12-12T21:41:45.453Z,16.60
2018-12-12T21:44:13.578Z,15.93
2018-12-12T21:46:41.719Z,16.73
2018-12-12T21:49:09.828Z,17.03
2018-12-12T21:51:38.061Z,17.27
2018-12-12T21:54:06.219Z,17.63
2018-12-12T21:56:34.459Z,17.03
2018-12-12T21:59:02.602Z,16.97
2018-12-12T22:01:30.816Z,17.17
2018-12-12T22:03:58.981Z,15.80
2018-12-12T22:06:27.192Z,17.40
2018-12-12T22:08:55.308Z,17.17
2018-12-12T22:11:23.403Z,17.17
2018-12-12T22:13:51.672Z,16.97
2018-12-12T22:16:19.781Z,17.40
2018-12-12T22:18:47.955Z,16.67
2018-12-12T22:21:16.265Z,17.27
2018-12-12T22:23:44.438Z,17.03
2018-12-12T22:26:12.659Z,17.00
2018-12-12T22:28:40.844Z,16.70
2018-12-12T22:31:08.994Z,17.83
2018-12-12T22:33:37.112Z,17.70
2018-12-12T22:36:05.261Z,16.90
2018-12-12T22:38:33.366Z,17.50
2018-12-12T22:41:01.720Z,17.50
2018-12-12T22:43:29.905Z,17.43
2018-12-12T22:45:58.080Z,16.77
2018-12-12T22:48:26.174Z,18.13
2018-12-12T22:50:54.311Z,17.87
2018-12-12T22:53:22.599Z,16.83
2018-12-12T22:55:50.766Z,15.97
2018-12-12T22:58:18.901Z,17.37
2018-12-12T23:00:51.373Z,16.97
2018-12-12T23:03:19.479Z,18.10
2018-12-12T23:05:47.641Z,16.27
2018-12-12T23:08:15.753Z,17.70
2018-12-12T23:10:44.006Z,18.53
2018-12-12T23:13:13.192Z,17.70
2018-12-12T23:15:41.352Z,17.37
2018-12-12T23:18:09.489Z,17.40
2018-12-12T23:20:37.598Z,17.40
2018-12-12T23:23:05.705Z,16.93
2018-12-12T23:25:34.001Z,17.63
2018-12-12T23:28:02.265Z,17.50
2018-12-12T23:30:30.380Z,17.60
2018-12-12T23:32:58.521Z,17.40
2018-12-12T23:35:26.664Z,18.60
2018-12-12T23:37:54.847Z,17.63
2018-12-12T23:40:22.969Z,18.20
2018-12-12T23:42:51.061Z,17.30
2018-12-12T23:45:19.173Z,18.60
2018-12-12T23:47:47.300Z,16.77
2018-12-12T23:50:15.512Z,18.90
2018-12-12T23:52:43.678Z,17.93
2018-12-12T23:55:12.376Z,18.33
2018-12-12T23:57:40.485Z,18.70
